sensor_id;sensor_type;location;lat;lon;timestamp;temperature;humidity
3310;DHT22;1667;53.238;10.394;2024-02-16T00:04:53;14.10;99.90
3310;DHT22;1667;53.238;10.394;2024-02-16T00:09:54;14.10;99.90
3310;DHT22;1667;53.238;10.394;2024-02-16T00:14:53;14.10;99.90
3310;DHT22;1667;53.238;10.394;2024-02-16T00:19:52;14.00;99.90
3310;DHT22;1667;53.238;10.394;2024-02-16T00:24:51;14.00;99.90
3310;DHT22;1667;53.238;10.394;2024-02-16T00:29:51;14.00;99.90
3310;DHT22;1667;53.238;10.394;2024-02-16T00:34:51;13.90;99.90
3310;DHT22;1667;53.238;10.394;2024-02-16T00:39:51;13.90;99.90
3310;DHT22;1667;53.238;10.394;2024-02-16T00:44:53;13.90;99.90
3310;DHT22;1667;53.238;10.394;2024-02-16T00:49:52;13.90;99.90
3310;DHT22;1667;53.238;10.394;2024-02-16T00:54:51;13.80;99.90
3310;DHT22;1667;53.238;10.394;2024-02-16T00:59:50;13.80;99.90
3310;DHT22;1667;53.238;10.394;2024-02-16T01:04:50;13.80;99.90
3310;DHT22;1667;53.238;10.394;2024-02-16T01:09:50;13.80;99.90
3310;DHT22;1667;53.238;10.394;2024-02-16T01:14:49;13.80;99.90
3310;DHT22;1667;53.238;10.394;2024-02-16T01:19:50;13.80;99.90
3310;DHT22;1667;53.238;10.394;2024-02-16T01:24:49;13.80;99.90
3310;DHT22;1667;53.238;10.394;2024-02-16T01:29:48;13.70;99.90
3310;DHT22;1667;53.238;10.394;2024-02-16T01:34:47;13.70;99.90
3310;DHT22;1667;53.238;10.394;2024-02-16T01:39:49;13.70;99.90
3310;DHT22;1667;53.238;10.394;2024-02-16T01:44:47;13.70;99.90
3310;DHT22;1667;53.238;10.394;2024-02-16T01:49:46;13.70;99.90
3310;DHT22;1667;53.238;10.394;2024-02-16T01:54:45;13.70;99.90
3310;DHT22;1667;53.238;10.394;2024-02-16T01:59:45;13.70;99.90
3310;DHT22;1667;53.238;10.394;2024-02-16T02:04:44;13.70;99.90
3310;DHT22;1667;53.238;10.394;2024-02-16T02:09:43;13.60;99.90
3310;DHT22;1667;53.238;10.394;2024-02-16T02:14:41;13.60;99.90
3310;DHT22;1667;53.238;10.394;2024-02-16T02:19:42;13.60;99.90
3310;DHT22;1667;53.238;10.394;2024-02-16T02:24:43;13.50;99.90
3310;DHT22;1667;53.238;10.394;2024-02-16T02:29:43;13.50;99.90
3310;DHT22;1667;53.238;10.394;2024-02-16T02:34:43;13.50;99.90
3310;DHT22;1667;53.238;10.394;2024-02-16T02:39:43;13.50;99.90
3310;DHT22;1667;53.238;10.394;2024-02-16T02:44:43;13.50;99.90
3310;DHT22;1667;53.238;10.394;2024-02-16T02:49:47;13.50;99.90
3310;DHT22;1667;53.238;10.394;2024-02-16T02:54:47;13.40;99.90
3310;DHT22;1667;53.238;10.394;2024-02-16T02:59:46;13.40;99.90
3310;DHT22;1667;53.238;10.394;2024-02-16T03:04:45;13.40;99.90
3310;DHT22;1667;53.238;10.394;2024-02-16T03:09:43;13.40;99.90
3310;DHT22;1667;53.238;10.394;2024-02-16T03:14:45;13.30;99.90
3310;DHT22;1667;53.238;10.394;2024-02-16T03:19:44;13.30;99.90
3310;DHT22;1667;53.238;10.394;2024-02-16T03:24:43;13.30;99.90
3310;DHT22;1667;53.238;10.394;2024-02-16T03:29:44;13.30;99.90
3310;DHT22;1667;53.238;10.394;2024-02-16T03:34:43;13.30;99.90
3310;DHT22;1667;53.238;10.394;2024-02-16T03:39:43;13.30;99.90
3310;DHT22;1667;53.238;10.394;2024-02-16T03:44:42;13.30;99.90
3310;DHT22;1667;53.238;10.394;2024-02-16T03:49:42;13.30;99.90
3310;DHT22;1667;53.238;10.394;2024-02-16T03:54:41;13.30;99.90
3310;DHT22;1667;53.238;10.394;2024-02-16T03:59:41;13.30;99.90
3310;DHT22;1667;53.238;10.394;2024-02-16T04:04:42;13.30;99.90
3310;DHT22;1667;53.238;10.394;2024-02-16T04:09:41;13.20;99.90
3310;DHT22;1667;53.238;10.394;2024-02-16T04:14:40;13.20;99.90
3310;DHT22;1667;53.238;10.394;2024-02-16T04:19:42;13.20;99.90
3310;DHT22;1667;53.238;10.394;2024-02-16T04:24:41;13.20;99.90
3310;DHT22;1667;53.238;10.394;2024-02-16T04:29:40;13.20;99.90
3310;DHT22;1667;53.238;10.394;2024-02-16T04:34:39;13.20;99.90
3310;DHT22;1667;53.238;10.394;2024-02-16T04:39:40;13.20;99.90
3310;DHT22;1667;53.238;10.394;2024-02-16T04:44:39;13.20;99.90
3310;DHT22;1667;53.238;10.394;2024-02-16T04:49:38;13.20;99.90
3310;DHT22;1667;53.238;10.394;2024-02-16T04:54:37;13.20;99.90
3310;DHT22;1667;53.238;10.394;2024-02-16T04:59:39;13.20;99.90
3310;DHT22;1667;53.238;10.394;2024-02-16T05:04:38;13.20;99.90
3310;DHT22;1667;53.238;10.394;2024-02-16T05:09:37;13.20;99.90
3310;DHT22;1667;53.238;10.394;2024-02-16T05:14:38;13.20;99.90
3310;DHT22;1667;53.238;10.394;2024-02-16T05:19:38;13.20;99.90
3310;DHT22;1667;53.238;10.394;2024-02-16T05:24:37;13.20;99.90
3310;DHT22;1667;53.238;10.394;2024-02-16T05:29:36;13.20;99.90
3310;DHT22;1667;53.238;10.394;2024-02-16T05:34:36;13.20;99.90
3310;DHT22;1667;53.238;10.394;2024-02-16T05:39:36;13.20;99.90
3310;DHT22;1667;53.238;10.394;2024-02-16T05:44:51;13.20;99.90
3310;DHT22;1667;53.238;10.394;2024-02-16T05:49:51;13.20;99.90
3310;DHT22;1667;53.238;10.394;2024-02-16T05:54:50;13.20;99.90
3310;DHT22;1667;53.238;10.394;2024-02-16T05:59:50;13.10;99.90
3310;DHT22;1667;53.238;10.394;2024-02-16T06:04:52;13.10;99.90
3310;DHT22;1667;53.238;10.394;2024-02-16T06:09:51;13.20;99.90
3310;DHT22;1667;53.238;10.394;2024-02-16T06:14:51;13.10;99.90
3310;DHT22;1667;53.238;10.394;2024-02-16T06:19:52;13.20;99.90
3310;DHT22;1667;53.238;10.394;2024-02-16T06:24:51;13.10;99.90
3310;DHT22;1667;53.238;10.394;2024-02-16T06:29:50;13.20;99.90
3310;DHT22;1667;53.238;10.394;2024-02-16T06:34:49;13.10;99.90
3310;DHT22;1667;53.238;10.394;2024-02-16T06:39:50;13.10;99.90
3310;DHT22;1667;53.238;10.394;2024-02-16T06:44:49;13.10;99.90
3310;DHT22;1667;53.238;10.394;2024-02-16T06:49:48;13.10;99.90
3310;DHT22;1667;53.238;10.394;2024-02-16T06:54:47;13.10;99.90
3310;DHT22;1667;53.238;10.394;2024-02-16T06:59:48;13.10;99.90
3310;DHT22;1667;53.238;10.394;2024-02-16T07:04:47;13.10;99.90
3310;DHT22;1667;53.238;10.394;2024-02-16T07:09:46;13.10;99.90
3310;DHT22;1667;53.238;10.394;2024-02-16T07:14:45;13.00;99.90
3310;DHT22;1667;53.238;10.394;2024-02-16T07:19:45;13.00;99.90
3310;DHT22;1667;53.238;10.394;2024-02-16T07:24:44;13.00;99.90
3310;DHT22;1667;53.238;10.394;2024-02-16T07:29:43;13.00;99.90
3310;DHT22;1667;53.238;10.394;2024-02-16T07:34:47;13.00;99.90
3310;DHT22;1667;53.238;10.394;2024-02-16T07:39:47;13.00;99.90
3310;DHT22;1667;53.238;10.394;2024-02-16T07:44:46;13.10;99.90
3310;DHT22;1667;53.238;10.394;2024-02-16T07:49:46;13.00;99.90
3310;DHT22;1667;53.238;10.394;2024-02-16T07:54:45;13.00;99.90
3310;DHT22;1667;53.238;10.394;2024-02-16T07:59:44;13.10;99.90
3310;DHT22;1667;53.238;10.394;2024-02-16T08:04:48;13.10;99.90
3310;DHT22;1667;53.238;10.394;2024-02-16T08:09:47;13.10;99.90
3310;DHT22;1667;53.238;10.394;2024-02-16T08:14:47;13.10;99.90
3310;DHT22;1667;53.238;10.394;2024-02-16T08:19:53;13.20;99.90
3310;DHT22;1667;53.238;10.394;2024-02-16T08:24:53;13.20;99.90
3310;DHT22;1667;53.238;10.394;2024-02-16T08:29:52;13.30;99.90
3310;DHT22;1667;53.238;10.394;2024-02-16T08:34:50;13.30;99.90
3310;DHT22;1667;53.238;10.394;2024-02-16T08:39:51;13.40;99.90
3310;DHT22;1667;53.238;10.394;2024-02-16T08:44:51;13.50;99.90
3310;DHT22;1667;53.238;10.394;2024-02-16T08:49:50;13.50;99.90
3310;DHT22;1667;53.238;10.394;2024-02-16T08:54:48;13.60;99.90
3310;DHT22;1667;53.238;10.394;2024-02-16T08:59:48;13.70;99.90
3310;DHT22;1667;53.238;10.394;2024-02-16T09:04:46;13.70;99.90
3310;DHT22;1667;53.238;10.394;2024-02-16T09:09:45;13.80;99.90
3310;DHT22;1667;53.238;10.394;2024-02-16T09:14:44;13.90;99.90
3310;DHT22;1667;53.238;10.394;2024-02-16T09:19:44;13.90;99.90
3310;DHT22;1667;53.238;10.394;2024-02-16T09:24:44;14.00;99.90
3310;DHT22;1667;53.238;10.394;2024-02-16T09:29:44;14.10;99.90
3310;DHT22;1667;53.238;10.394;2024-02-16T09:34:44;14.10;99.90
3310;DHT22;1667;53.238;10.394;2024-02-16T09:39:44;14.20;99.90
3310;DHT22;1667;53.238;10.394;2024-02-16T09:44:44;14.20;99.90
3310;DHT22;1667;53.238;10.394;2024-02-16T09:49:45;14.30;99.90
3310;DHT22;1667;53.238;10.394;2024-02-16T09:54:46;14.40;99.90
3310;DHT22;1667;53.238;10.394;2024-02-16T09:59:45;14.40;99.90
3310;DHT22;1667;53.238;10.394;2024-02-16T10:04:46;14.50;99.90
3310;DHT22;1667;53.238;10.394;2024-02-16T10:09:45;14.60;99.90
3310;DHT22;1667;53.238;10.394;2024-02-16T10:14:53;14.70;99.90
3310;DHT22;1667;53.238;10.394;2024-02-16T10:19:58;14.80;99.90
3310;DHT22;1667;53.238;10.394;2024-02-16T10:25:07;14.80;99.90
3310;DHT22;1667;53.238;10.394;2024-02-16T10:30:10;14.90;99.90
3310;DHT22;1667;53.238;10.394;2024-02-16T10:35:11;15.00;99.90
3310;DHT22;1667;53.238;10.394;2024-02-16T10:40:13;15.10;99.90
3310;DHT22;1667;53.238;10.394;2024-02-16T10:45:15;15.20;99.90
3310;DHT22;1667;53.238;10.394;2024-02-16T10:50:17;15.40;99.90
3310;DHT22;1667;53.238;10.394;2024-02-16T10:55:15;15.50;99.90
3310;DHT22;1667;53.238;10.394;2024-02-16T11:00:16;15.60;99.90
3310;DHT22;1667;53.238;10.394;2024-02-16T11:05:18;15.70;99.90
3310;DHT22;1667;53.238;10.394;2024-02-16T11:10:17;15.90;99.90
3310;DHT22;1667;53.238;10.394;2024-02-16T11:15:15;15.90;99.90
3310;DHT22;1667;53.238;10.394;2024-02-16T11:20:14;16.00;99.90
3310;DHT22;1667;53.238;10.394;2024-02-16T11:25:14;16.00;99.90
3310;DHT22;1667;53.238;10.394;2024-02-16T11:30:12;16.00;99.90
3310;DHT22;1667;53.238;10.394;2024-02-16T11:35:11;16.10;99.90
3310;DHT22;1667;53.238;10.394;2024-02-16T11:40:12;16.10;99.90
3310;DHT22;1667;53.238;10.394;2024-02-16T11:52:04;16.20;99.90
3310;DHT22;1667;53.238;10.394;2024-02-16T11:57:03;16.20;99.90
3310;DHT22;1667;53.238;10.394;2024-02-16T12:08:52;16.30;99.90
3310;DHT22;1667;53.238;10.394;2024-02-16T12:20:56;16.50;99.90
3310;DHT22;1667;53.238;10.394;2024-02-16T12:25:57;16.50;99.90
3310;DHT22;1667;53.238;10.394;2024-02-16T12:30:55;16.60;99.90
3310;DHT22;1667;53.238;10.394;2024-02-16T12:35:59;16.60;99.90
3310;DHT22;1667;53.238;10.394;2024-02-16T12:41:00;16.70;99.90
3310;DHT22;1667;53.238;10.394;2024-02-16T12:45:58;16.80;99.90
3310;DHT22;1667;53.238;10.394;2024-02-16T12:51:00;16.80;99.90
3310;DHT22;1667;53.238;10.394;2024-02-16T12:56:01;16.90;99.90
3310;DHT22;1667;53.238;10.394;2024-02-16T13:01:00;17.00;99.90
3310;DHT22;1667;53.238;10.394;2024-02-16T13:06:11;17.00;99.90
3310;DHT22;1667;53.238;10.394;2024-02-16T13:11:11;17.00;99.90
3310;DHT22;1667;53.238;10.394;2024-02-16T13:22:59;17.10;99.90
3310;DHT22;1667;53.238;10.394;2024-02-16T13:28:00;17.00;99.90
3310;DHT22;1667;53.238;10.394;2024-02-16T13:33:01;17.00;99.90
3310;DHT22;1667;53.238;10.394;2024-02-16T13:38:00;17.00;99.90
3310;DHT22;1667;53.238;10.394;2024-02-16T13:43:01;17.10;99.90
3310;DHT22;1667;53.238;10.394;2024-02-16T13:48:09;17.10;99.90
3310;DHT22;1667;53.238;10.394;2024-02-16T13:53:08;17.10;99.90
3310;DHT22;1667;53.238;10.394;2024-02-16T13:58:08;17.00;99.90
3310;DHT22;1667;53.238;10.394;2024-02-16T14:03:09;17.00;99.90
3310;DHT22;1667;53.238;10.394;2024-02-16T14:08:08;16.90;99.90
3310;DHT22;1667;53.238;10.394;2024-02-16T14:13:09;16.90;99.90
3310;DHT22;1667;53.238;10.394;2024-02-16T14:18:07;16.90;99.90
3310;DHT22;1667;53.238;10.394;2024-02-16T14:23:17;16.80;99.90
3310;DHT22;1667;53.238;10.394;2024-02-16T14:28:17;16.80;99.90
3310;DHT22;1667;53.238;10.394;2024-02-16T14:33:16;16.80;99.90
3310;DHT22;1667;53.238;10.394;2024-02-16T14:38:24;16.80;99.90
3310;DHT22;1667;53.238;10.394;2024-02-16T14:43:24;16.80;99.90
3310;DHT22;1667;53.238;10.394;2024-02-16T14:48:23;16.70;99.90
3310;DHT22;1667;53.238;10.394;2024-02-16T14:53:23;16.60;99.90
3310;DHT22;1667;53.238;10.394;2024-02-16T14:58:24;16.60;99.90
3310;DHT22;1667;53.238;10.394;2024-02-16T15:03:24;16.50;99.90
3310;DHT22;1667;53.238;10.394;2024-02-16T15:15:14;16.40;99.90
3310;DHT22;1667;53.238;10.394;2024-02-16T15:20:12;16.30;99.90
3310;DHT22;1667;53.238;10.394;2024-02-16T15:25:10;16.30;99.90
3310;DHT22;1667;53.238;10.394;2024-02-16T15:30:10;16.30;99.90
3310;DHT22;1667;53.238;10.394;2024-02-16T15:35:10;16.20;99.90
3310;DHT22;1667;53.238;10.394;2024-02-16T15:40:09;16.10;99.90
3310;DHT22;1667;53.238;10.394;2024-02-16T15:45:08;16.10;99.90
3310;DHT22;1667;53.238;10.394;2024-02-16T15:50:08;16.10;99.90
3310;DHT22;1667;53.238;10.394;2024-02-16T15:55:09;16.00;99.90
3310;DHT22;1667;53.238;10.394;2024-02-16T16:00:08;15.90;99.90
3310;DHT22;1667;53.238;10.394;2024-02-16T16:05:07;15.90;99.90
3310;DHT22;1667;53.238;10.394;2024-02-16T16:10:06;15.80;99.90
3310;DHT22;1667;53.238;10.394;2024-02-16T16:15:06;15.80;99.90
3310;DHT22;1667;53.238;10.394;2024-02-16T16:20:06;15.80;99.90
3310;DHT22;1667;53.238;10.394;2024-02-16T16:25:06;15.70;99.90
3310;DHT22;1667;53.238;10.394;2024-02-16T16:30:07;15.70;99.90
3310;DHT22;1667;53.238;10.394;2024-02-16T16:35:06;15.70;99.90
3310;DHT22;1667;53.238;10.394;2024-02-16T16:40:08;15.70;99.90
3310;DHT22;1667;53.238;10.394;2024-02-16T16:45:08;15.70;99.90
3310;DHT22;1667;53.238;10.394;2024-02-16T16:50:08;15.70;99.90
3310;DHT22;1667;53.238;10.394;2024-02-16T16:55:07;15.70;99.90
3310;DHT22;1667;53.238;10.394;2024-02-16T17:00:08;15.60;99.90
3310;DHT22;1667;53.238;10.394;2024-02-16T17:05:07;15.60;99.90
3310;DHT22;1667;53.238;10.394;2024-02-16T17:10:06;15.60;99.90
3310;DHT22;1667;53.238;10.394;2024-02-16T17:15:08;15.50;99.90
3310;DHT22;1667;53.238;10.394;2024-02-16T17:20:10;15.40;99.90
3310;DHT22;1667;53.238;10.394;2024-02-16T17:25:09;15.40;99.90
3310;DHT22;1667;53.238;10.394;2024-02-16T17:30:10;15.40;99.90
3310;DHT22;1667;53.238;10.394;2024-02-16T17:35:09;15.40;99.90
3310;DHT22;1667;53.238;10.394;2024-02-16T17:40:08;15.30;99.90
3310;DHT22;1667;53.238;10.394;2024-02-16T17:45:08;15.40;99.90
3310;DHT22;1667;53.238;10.394;2024-02-16T17:50:07;15.30;99.90
3310;DHT22;1667;53.238;10.394;2024-02-16T17:55:07;15.30;99.90
3310;DHT22;1667;53.238;10.394;2024-02-16T18:00:07;15.30;99.90
3310;DHT22;1667;53.238;10.394;2024-02-16T18:05:07;15.30;99.90
3310;DHT22;1667;53.238;10.394;2024-02-16T18:10:06;15.20;99.90
3310;DHT22;1667;53.238;10.394;2024-02-16T18:15:06;15.20;99.90
3310;DHT22;1667;53.238;10.394;2024-02-16T18:20:07;15.20;99.90
3310;DHT22;1667;53.238;10.394;2024-02-16T18:25:09;15.20;99.90
3310;DHT22;1667;53.238;10.394;2024-02-16T18:30:08;15.20;99.90
3310;DHT22;1667;53.238;10.394;2024-02-16T18:35:09;15.10;99.90
3310;DHT22;1667;53.238;10.394;2024-02-16T18:40:08;15.10;99.90
3310;DHT22;1667;53.238;10.394;2024-02-16T18:45:07;15.00;99.90
3310;DHT22;1667;53.238;10.394;2024-02-16T18:50:08;15.00;99.90
3310;DHT22;1667;53.238;10.394;2024-02-16T18:55:07;14.90;99.90
3310;DHT22;1667;53.238;10.394;2024-02-16T19:00:07;14.90;99.90
3310;DHT22;1667;53.238;10.394;2024-02-16T19:05:06;14.90;99.90
3310;DHT22;1667;53.238;10.394;2024-02-16T19:10:07;14.80;99.90
3310;DHT22;1667;53.238;10.394;2024-02-16T19:15:06;14.70;99.90
3310;DHT22;1667;53.238;10.394;2024-02-16T19:20:06;14.70;99.90
3310;DHT22;1667;53.238;10.394;2024-02-16T19:25:08;14.60;99.90
3310;DHT22;1667;53.238;10.394;2024-02-16T19:30:08;14.60;99.90
3310;DHT22;1667;53.238;10.394;2024-02-16T19:35:07;14.60;99.90
3310;DHT22;1667;53.238;10.394;2024-02-16T19:40:11;14.50;99.90
3310;DHT22;1667;53.238;10.394;2024-02-16T19:45:10;14.50;99.90
3310;DHT22;1667;53.238;10.394;2024-02-16T19:50:12;14.50;99.90
3310;DHT22;1667;53.238;10.394;2024-02-16T19:55:13;14.50;99.90
3310;DHT22;1667;53.238;10.394;2024-02-16T20:00:12;14.40;99.90
3310;DHT22;1667;53.238;10.394;2024-02-16T20:05:12;14.40;99.90
3310;DHT22;1667;53.238;10.394;2024-02-16T20:10:16;14.40;99.90
3310;DHT22;1667;53.238;10.394;2024-02-16T20:15:15;14.40;99.90
3310;DHT22;1667;53.238;10.394;2024-02-16T20:20:16;14.40;99.90
3310;DHT22;1667;53.238;10.394;2024-02-16T20:25:21;14.40;99.90
3310;DHT22;1667;53.238;10.394;2024-02-16T20:30:20;14.40;99.90
3310;DHT22;1667;53.238;10.394;2024-02-16T20:35:19;14.40;99.90
3310;DHT22;1667;53.238;10.394;2024-02-16T20:40:18;14.40;99.90
3310;DHT22;1667;53.238;10.394;2024-02-16T20:45:18;14.40;99.90
3310;DHT22;1667;53.238;10.394;2024-02-16T20:50:18;14.40;99.90
3310;DHT22;1667;53.238;10.394;2024-02-16T20:55:20;14.40;99.90
3310;DHT22;1667;53.238;10.394;2024-02-16T21:00:21;14.40;99.90
3310;DHT22;1667;53.238;10.394;2024-02-16T21:05:21;14.30;99.90
3310;DHT22;1667;53.238;10.394;2024-02-16T21:10:21;14.30;99.90
3310;DHT22;1667;53.238;10.394;2024-02-16T21:15:22;14.30;99.90
3310;DHT22;1667;53.238;10.394;2024-02-16T21:20:21;14.40;99.90
3310;DHT22;1667;53.238;10.394;2024-02-16T21:25:22;14.30;99.90
3310;DHT22;1667;53.238;10.394;2024-02-16T21:30:21;14.30;99.90
3310;DHT22;1667;53.238;10.394;2024-02-16T21:35:20;14.40;99.90
3310;DHT22;1667;53.238;10.394;2024-02-16T21:40:19;14.30;99.90
3310;DHT22;1667;53.238;10.394;2024-02-16T21:45:22;14.30;99.90
3310;DHT22;1667;53.238;10.394;2024-02-16T21:50:22;14.30;99.90
3310;DHT22;1667;53.238;10.394;2024-02-16T21:55:22;14.30;99.90
3310;DHT22;1667;53.238;10.394;2024-02-16T22:00:23;14.20;99.90
3310;DHT22;1667;53.238;10.394;2024-02-16T22:05:22;14.20;99.90
3310;DHT22;1667;53.238;10.394;2024-02-16T22:10:21;14.20;99.90
3310;DHT22;1667;53.238;10.394;2024-02-16T22:15:22;14.20;99.90
3310;DHT22;1667;53.238;10.394;2024-02-16T22:20:22;14.20;99.90
3310;DHT22;1667;53.238;10.394;2024-02-16T22:25:21;14.20;99.90
3310;DHT22;1667;53.238;10.394;2024-02-16T22:30:21;14.20;99.90
3310;DHT22;1667;53.238;10.394;2024-02-16T22:35:20;14.20;99.90
3310;DHT22;1667;53.238;10.394;2024-02-16T22:40:19;14.20;99.90
3310;DHT22;1667;53.238;10.394;2024-02-16T22:45:19;14.20;99.90
3310;DHT22;1667;53.238;10.394;2024-02-16T22:50:18;14.20;99.90
3310;DHT22;1667;53.238;10.394;2024-02-16T22:55:17;14.20;99.90
3310;DHT22;1667;53.238;10.394;2024-02-16T23:00:17;14.20;99.90
3310;DHT22;1667;53.238;10.394;2024-02-16T23:05:23;14.20;99.90
3310;DHT22;1667;53.238;10.394;2024-02-16T23:10:22;14.20;99.90
3310;DHT22;1667;53.238;10.394;2024-02-16T23:15:22;14.10;99.90
3310;DHT22;1667;53.238;10.394;2024-02-16T23:20:23;14.20;99.90
3310;DHT22;1667;53.238;10.394;2024-02-16T23:25:22;14.20;99.90
3310;DHT22;1667;53.238;10.394;2024-02-16T23:30:22;14.10;99.90
3310;DHT22;1667;53.238;10.394;2024-02-16T23:35:23;14.10;99.90
3310;DHT22;1667;53.238;10.394;2024-02-16T23:40:22;14.10;99.90
3310;DHT22;1667;53.238;10.394;2024-02-16T23:45:21;14.10;99.90
3310;DHT22;1667;53.238;10.394;2024-02-16T23:50:22;14.10;99.90
3310;DHT22;1667;53.238;10.394;2024-02-16T23:55:23;14.10;99.90
